Clayton Junction, Louisiana
Current Conditions -  °F | °C
As of 9:35 AM on Friday 19 Dec 2014 (Local Time) from KHEZ Reporting Station
Overcast Overcast  
Wind Chill: 43°   Ceiling: 9500
Heat Index: 48°   Visibility: 10mi
Dew Point: 45°   Wind: 12mph
Humidity: 87%   Direction: 70°ENE
Pressure: 30.16"   Gusts: NA
Location:  31.828°N, 91.4836°W
Report Text: KHEZ 191535Z AUTO 07010KT 050V110 10SM OVC095 09/07 A3016 RMK AO1 P0003
Loading
Personal Weather Stations






























Interactive Weather Map New forecast layout! Learn more

10-Day Weather Forecast

Advertisements
Track Severe Weather on mobile